首页
METAR-TAF:

METAR-TAF

机场 :

蘇聖瑪麗, 密歇根州, 美国

纬度: 46-15N, 经度: 084-28W, 海拔: 244米

当前天气观测

该预报发布于11分钟前的19:56 UTC
风速16节,风向,有时为19节阵风
温度 26°C
湿度 34%
气压 1004 hPa
能見度: 16.1公里
天空无云

METAR: KCIU 181956Z AUTO 35016G19KT 10SM CLR 26/09 A2964 RMK AO2 PK WND 34027/1910 SLP032 T02560089

时间: 16:07 (20:07 UTC)


TAF: 丢失

超过4000个机场的气象观测和天气预报(METAR&TAF报告)。

可查询的气象台以黄色和红色小点在地图上表示。

将鼠标移到小点上方,可查看气象台名称。

然后点击查看天气观测和预报。

如需切换地图:点击带黑十字的绿色按钮放大地图;点击带横线的绿色按钮缩小地图;或者点击绿色箭头查看邻近地区的地图。


METAR-TAF: